sensor_id;sensor_type;location;lat;lon;timestamp;P1;durP1;ratioP1;P2;durP2;ratioP2
73130;SDS011;64204;13.766;100.702;2023-11-21T16:42:36;5.20;;;3.35;;
73130;SDS011;64204;13.766;100.702;2023-11-21T16:45:04;10.43;;;5.03;;
73130;SDS011;64204;13.766;100.702;2023-11-21T16:47:31;7.22;;;3.05;;
73130;SDS011;64204;13.766;100.702;2023-11-21T16:49:58;4.75;;;2.63;;
73130;SDS011;64204;13.766;100.702;2023-11-21T16:52:25;5.35;;;3.33;;
73130;SDS011;64204;13.766;100.702;2023-11-21T16:54:51;7.45;;;4.60;;
73130;SDS011;64204;13.766;100.702;2023-11-21T16:57:18;6.90;;;3.55;;
73130;SDS011;64204;13.766;100.702;2023-11-21T16:59:44;17.13;;;6.20;;
73130;SDS011;64204;13.766;100.702;2023-11-21T17:02:16;9.00;;;4.55;;
73130;SDS011;64204;13.766;100.702;2023-11-21T17:04:43;7.20;;;3.72;;
73130;SDS011;64204;13.766;100.702;2023-11-21T17:07:15;3.90;;;2.85;;
73130;SDS011;64204;13.766;100.702;2023-11-21T17:09:42;8.80;;;3.90;;
73130;SDS011;64204;13.766;100.702;2023-11-21T17:12:09;5.47;;;3.28;;
73130;SDS011;64204;13.766;100.702;2023-11-21T17:14:35;7.47;;;3.95;;
73130;SDS011;64204;13.766;100.702;2023-11-21T17:17:04;5.05;;;2.92;;
73130;SDS011;64204;13.766;100.702;2023-11-21T17:19:34;10.63;;;4.75;;
73130;SDS011;64204;13.766;100.702;2023-11-21T17:22:01;4.10;;;2.65;;
73130;SDS011;64204;13.766;100.702;2023-11-21T17:24:28;6.15;;;3.13;;
73130;SDS011;64204;13.766;100.702;2023-11-21T17:26:55;8.07;;;4.38;;
73130;SDS011;64204;13.766;100.702;2023-11-21T17:29:21;9.77;;;5.60;;
73130;SDS011;64204;13.766;100.702;2023-11-21T17:31:47;4.57;;;3.45;;
73130;SDS011;64204;13.766;100.702;2023-11-21T17:34:14;6.05;;;3.10;;
73130;SDS011;64204;13.766;100.702;2023-11-21T17:36:44;4.85;;;3.45;;
73130;SDS011;64204;13.766;100.702;2023-11-21T17:39:11;9.93;;;4.38;;
73130;SDS011;64204;13.766;100.702;2023-11-21T17:41:38;6.85;;;4.10;;
73130;SDS011;64204;13.766;100.702;2023-11-21T17:44:05;7.45;;;3.83;;
73130;SDS011;64204;13.766;100.702;2023-11-21T17:46:32;4.45;;;2.90;;
73130;SDS011;64204;13.766;100.702;2023-11-21T17:48:59;10.13;;;5.78;;
73130;SDS011;64204;13.766;100.702;2023-11-21T17:51:25;6.43;;;4.15;;
73130;SDS011;64204;13.766;100.702;2023-11-21T17:53:51;7.60;;;4.43;;
73130;SDS011;64204;13.766;100.702;2023-11-21T17:56:23;7.85;;;5.03;;
73130;SDS011;64204;13.766;100.702;2023-11-21T17:58:49;7.38;;;4.63;;
73130;SDS011;64204;13.766;100.702;2023-11-21T18:01:19;5.55;;;3.63;;
73130;SDS011;64204;13.766;100.702;2023-11-21T18:03:46;4.95;;;3.60;;
73130;SDS011;64204;13.766;100.702;2023-11-21T18:06:12;4.28;;;2.90;;
73130;SDS011;64204;13.766;100.702;2023-11-21T18:08:39;7.18;;;4.60;;
73130;SDS011;64204;13.766;100.702;2023-11-21T18:11:07;7.40;;;3.47;;
73130;SDS011;64204;13.766;100.702;2023-11-21T18:13:33;5.57;;;3.08;;
73130;SDS011;64204;13.766;100.702;2023-11-21T18:16:00;9.80;;;3.72;;
73130;SDS011;64204;13.766;100.702;2023-11-21T18:18:26;9.88;;;5.60;;
73130;SDS011;64204;13.766;100.702;2023-11-21T18:20:53;7.53;;;3.42;;
73130;SDS011;64204;13.766;100.702;2023-11-21T18:23:19;5.90;;;3.40;;
73130;SDS011;64204;13.766;100.702;2023-11-21T18:25:45;4.28;;;3.15;;
73130;SDS011;64204;13.766;100.702;2023-11-21T18:28:12;6.70;;;3.03;;
73130;SDS011;64204;13.766;100.702;2023-11-21T18:30:39;4.53;;;3.08;;
73130;SDS011;64204;13.766;100.702;2023-11-21T18:33:06;6.32;;;3.33;;
73130;SDS011;64204;13.766;100.702;2023-11-21T18:35:32;5.70;;;2.60;;
73130;SDS011;64204;13.766;100.702;2023-11-21T18:37:59;5.10;;;3.40;;
73130;SDS011;64204;13.766;100.702;2023-11-21T18:40:25;4.82;;;3.13;;
73130;SDS011;64204;13.766;100.702;2023-11-21T18:42:51;5.50;;;3.15;;
73130;SDS011;64204;13.766;100.702;2023-11-21T18:45:18;9.85;;;6.25;;
73130;SDS011;64204;13.766;100.702;2023-11-21T18:47:44;7.00;;;3.88;;
73130;SDS011;64204;13.766;100.702;2023-11-21T18:50:13;6.00;;;3.33;;
73130;SDS011;64204;13.766;100.702;2023-11-21T18:52:43;7.43;;;4.03;;
73130;SDS011;64204;13.766;100.702;2023-11-21T18:55:10;8.70;;;4.93;;
73130;SDS011;64204;13.766;100.702;2023-11-21T18:57:36;5.97;;;3.22;;
73130;SDS011;64204;13.766;100.702;2023-11-21T19:00:04;10.15;;;5.10;;
73130;SDS011;64204;13.766;100.702;2023-11-21T19:02:34;8.40;;;4.68;;
73130;SDS011;64204;13.766;100.702;2023-11-21T19:05:01;4.60;;;3.03;;
73130;SDS011;64204;13.766;100.702;2023-11-21T19:07:30;4.80;;;2.90;;
73130;SDS011;64204;13.766;100.702;2023-11-21T19:10:02;9.07;;;4.93;;
73130;SDS011;64204;13.766;100.702;2023-11-21T19:12:30;11.55;;;6.85;;
73130;SDS011;64204;13.766;100.702;2023-11-21T19:15:08;9.75;;;5.28;;
73130;SDS011;64204;13.766;100.702;2023-11-21T19:17:35;5.47;;;3.63;;
73130;SDS011;64204;13.766;100.702;2023-11-21T19:20:03;7.40;;;4.38;;
73130;SDS011;64204;13.766;100.702;2023-11-21T19:22:30;6.25;;;4.70;;
73130;SDS011;64204;13.766;100.702;2023-11-21T19:24:58;9.63;;;5.95;;
73130;SDS011;64204;13.766;100.702;2023-11-21T19:27:26;5.35;;;3.40;;
73130;SDS011;64204;13.766;100.702;2023-11-21T19:29:53;4.35;;;2.88;;
73130;SDS011;64204;13.766;100.702;2023-11-21T19:32:19;6.50;;;3.53;;
73130;SDS011;64204;13.766;100.702;2023-11-21T19:34:45;8.65;;;4.00;;
73130;SDS011;64204;13.766;100.702;2023-11-21T19:37:12;4.82;;;3.42;;
73130;SDS011;64204;13.766;100.702;2023-11-21T19:39:38;6.32;;;4.07;;
73130;SDS011;64204;13.766;100.702;2023-11-21T19:42:05;5.80;;;4.07;;
73130;SDS011;64204;13.766;100.702;2023-11-21T19:44:31;6.13;;;3.33;;
73130;SDS011;64204;13.766;100.702;2023-11-21T19:47:02;9.57;;;5.72;;
73130;SDS011;64204;13.766;100.702;2023-11-21T19:49:29;7.90;;;4.40;;
73130;SDS011;64204;13.766;100.702;2023-11-21T19:51:55;4.22;;;3.10;;
73130;SDS011;64204;13.766;100.702;2023-11-21T19:54:22;6.00;;;3.47;;
73130;SDS011;64204;13.766;100.702;2023-11-21T19:56:48;9.50;;;5.80;;
73130;SDS011;64204;13.766;100.702;2023-11-21T19:59:14;7.82;;;4.57;;
73130;SDS011;64204;13.766;100.702;2023-11-21T20:01:41;8.60;;;4.80;;
73130;SDS011;64204;13.766;100.702;2023-11-21T20:04:10;8.02;;;4.25;;
73130;SDS011;64204;13.766;100.702;2023-11-21T20:06:40;6.55;;;3.50;;
73130;SDS011;64204;13.766;100.702;2023-11-21T20:09:07;8.27;;;5.47;;
73130;SDS011;64204;13.766;100.702;2023-11-21T20:11:35;8.52;;;5.43;;
73130;SDS011;64204;13.766;100.702;2023-11-21T20:14:02;9.25;;;5.25;;
73130;SDS011;64204;13.766;100.702;2023-11-21T20:16:28;8.07;;;4.70;;
73130;SDS011;64204;13.766;100.702;2023-11-21T20:18:54;6.22;;;4.55;;
73130;SDS011;64204;13.766;100.702;2023-11-21T20:21:21;11.02;;;6.18;;
73130;SDS011;64204;13.766;100.702;2023-11-21T20:23:48;7.18;;;5.07;;
73130;SDS011;64204;13.766;100.702;2023-11-21T20:26:24;10.52;;;5.72;;
73130;SDS011;64204;13.766;100.702;2023-11-21T20:28:51;10.57;;;5.60;;
73130;SDS011;64204;13.766;100.702;2023-11-21T20:31:18;10.48;;;5.85;;
73130;SDS011;64204;13.766;100.702;2023-11-21T20:33:45;8.27;;;5.57;;
73130;SDS011;64204;13.766;100.702;2023-11-21T20:36:13;14.20;;;7.15;;
73130;SDS011;64204;13.766;100.702;2023-11-21T20:38:40;13.20;;;9.20;;
73130;SDS011;64204;13.766;100.702;2023-11-21T20:41:07;13.13;;;6.82;;
73130;SDS011;64204;13.766;100.702;2023-11-21T20:43:37;8.82;;;6.50;;
73130;SDS011;64204;13.766;100.702;2023-11-21T20:46:04;13.63;;;8.18;;
73130;SDS011;64204;13.766;100.702;2023-11-21T20:48:31;10.80;;;6.68;;
73130;SDS011;64204;13.766;100.702;2023-11-21T20:50:58;10.13;;;6.43;;
73130;SDS011;64204;13.766;100.702;2023-11-21T20:53:24;14.25;;;9.27;;
73130;SDS011;64204;13.766;100.702;2023-11-21T20:55:51;8.45;;;5.65;;
73130;SDS011;64204;13.766;100.702;2023-11-21T20:58:18;10.68;;;7.35;;
73130;SDS011;64204;13.766;100.702;2023-11-21T21:00:44;17.48;;;11.13;;
73130;SDS011;64204;13.766;100.702;2023-11-21T21:03:10;14.48;;;9.05;;
73130;SDS011;64204;13.766;100.702;2023-11-21T21:05:40;12.75;;;8.13;;
73130;SDS011;64204;13.766;100.702;2023-11-21T21:08:07;11.80;;;6.75;;
73130;SDS011;64204;13.766;100.702;2023-11-21T21:10:33;11.50;;;6.28;;
73130;SDS011;64204;13.766;100.702;2023-11-21T21:13:00;18.67;;;9.95;;
73130;SDS011;64204;13.766;100.702;2023-11-21T21:15:26;14.60;;;9.10;;
73130;SDS011;64204;13.766;100.702;2023-11-21T21:17:53;12.80;;;8.07;;
73130;SDS011;64204;13.766;100.702;2023-11-21T21:20:19;12.82;;;8.50;;
73130;SDS011;64204;13.766;100.702;2023-11-21T21:22:47;18.20;;;8.55;;
73130;SDS011;64204;13.766;100.702;2023-11-21T21:25:13;12.35;;;8.30;;
73130;SDS011;64204;13.766;100.702;2023-11-21T21:27:40;12.82;;;9.52;;
73130;SDS011;64204;13.766;100.702;2023-11-21T21:30:06;20.02;;;11.63;;
73130;SDS011;64204;13.766;100.702;2023-11-21T21:32:34;17.20;;;11.35;;
73130;SDS011;64204;13.766;100.702;2023-11-21T21:35:00;10.13;;;7.18;;
73130;SDS011;64204;13.766;100.702;2023-11-21T21:37:31;10.68;;;6.50;;
73130;SDS011;64204;13.766;100.702;2023-11-21T21:39:58;17.88;;;9.73;;
73130;SDS011;64204;13.766;100.702;2023-11-21T21:42:25;15.93;;;9.50;;
73130;SDS011;64204;13.766;100.702;2023-11-21T21:44:51;9.27;;;6.22;;
73130;SDS011;64204;13.766;100.702;2023-11-21T21:47:18;22.08;;;14.35;;
73130;SDS011;64204;13.766;100.702;2023-11-21T21:49:44;12.80;;;8.85;;
73130;SDS011;64204;13.766;100.702;2023-11-21T21:52:11;15.20;;;8.00;;
73130;SDS011;64204;13.766;100.702;2023-11-21T21:54:38;13.93;;;9.63;;
73130;SDS011;64204;13.766;100.702;2023-11-21T21:57:05;15.48;;;9.60;;
73130;SDS011;64204;13.766;100.702;2023-11-21T21:59:31;17.42;;;10.55;;
73130;SDS011;64204;13.766;100.702;2023-11-21T22:01:57;11.93;;;7.22;;
73130;SDS011;64204;13.766;100.702;2023-11-21T22:04:24;11.10;;;7.00;;
73130;SDS011;64204;13.766;100.702;2023-11-21T22:06:50;11.05;;;6.93;;
73130;SDS011;64204;13.766;100.702;2023-11-21T22:09:16;18.30;;;11.13;;
73130;SDS011;64204;13.766;100.702;2023-11-21T22:11:44;19.65;;;11.98;;
73130;SDS011;64204;13.766;100.702;2023-11-21T22:14:10;12.88;;;8.18;;
73130;SDS011;64204;13.766;100.702;2023-11-21T22:16:37;17.52;;;11.13;;
73130;SDS011;64204;13.766;100.702;2023-11-21T22:19:03;9.52;;;6.25;;
73130;SDS011;64204;13.766;100.702;2023-11-21T22:21:31;11.50;;;7.57;;
73130;SDS011;64204;13.766;100.702;2023-11-21T22:23:57;11.68;;;7.60;;
73130;SDS011;64204;13.766;100.702;2023-11-21T22:26:23;17.55;;;9.98;;
73130;SDS011;64204;13.766;100.702;2023-11-21T22:28:50;14.52;;;7.75;;
73130;SDS011;64204;13.766;100.702;2023-11-21T22:31:17;11.32;;;7.43;;
73130;SDS011;64204;13.766;100.702;2023-11-21T22:33:43;11.70;;;6.75;;
73130;SDS011;64204;13.766;100.702;2023-11-21T22:36:13;10.68;;;7.25;;
73130;SDS011;64204;13.766;100.702;2023-11-21T22:38:40;12.27;;;9.05;;
73130;SDS011;64204;13.766;100.702;2023-11-21T22:41:07;8.68;;;6.47;;
73130;SDS011;64204;13.766;100.702;2023-11-21T22:43:34;10.13;;;7.13;;
73130;SDS011;64204;13.766;100.702;2023-11-21T22:46:03;11.18;;;6.55;;
73130;SDS011;64204;13.766;100.702;2023-11-21T22:48:32;8.85;;;6.28;;
73130;SDS011;64204;13.766;100.702;2023-11-21T22:50:58;12.80;;;6.93;;
73130;SDS011;64204;13.766;100.702;2023-11-21T22:53:25;13.15;;;8.40;;
73130;SDS011;64204;13.766;100.702;2023-11-21T22:55:51;11.70;;;7.22;;
73130;SDS011;64204;13.766;100.702;2023-11-21T22:58:18;16.02;;;9.93;;
73130;SDS011;64204;13.766;100.702;2023-11-21T23:00:44;13.40;;;8.10;;
73130;SDS011;64204;13.766;100.702;2023-11-21T23:03:12;8.52;;;6.00;;
73130;SDS011;64204;13.766;100.702;2023-11-21T23:05:39;11.88;;;6.35;;
73130;SDS011;64204;13.766;100.702;2023-11-21T23:08:05;11.23;;;6.85;;
73130;SDS011;64204;13.766;100.702;2023-11-21T23:10:34;13.30;;;6.57;;
73130;SDS011;64204;13.766;100.702;2023-11-21T23:13:01;10.00;;;6.72;;
73130;SDS011;64204;13.766;100.702;2023-11-21T23:15:27;10.25;;;6.85;;
73130;SDS011;64204;13.766;100.702;2023-11-21T23:17:53;9.85;;;6.45;;
73130;SDS011;64204;13.766;100.702;2023-11-21T23:20:20;10.00;;;6.60;;
73130;SDS011;64204;13.766;100.702;2023-11-21T23:22:48;20.42;;;12.50;;
73130;SDS011;64204;13.766;100.702;2023-11-21T23:25:14;13.30;;;8.45;;
73130;SDS011;64204;13.766;100.702;2023-11-21T23:27:42;23.75;;;13.05;;
73130;SDS011;64204;13.766;100.702;2023-11-21T23:30:11;10.20;;;7.50;;
73130;SDS011;64204;13.766;100.702;2023-11-21T23:32:41;11.73;;;7.35;;
73130;SDS011;64204;13.766;100.702;2023-11-21T23:35:08;19.90;;;11.60;;
73130;SDS011;64204;13.766;100.702;2023-11-21T23:37:35;21.83;;;10.57;;
73130;SDS011;64204;13.766;100.702;2023-11-21T23:40:02;20.23;;;12.32;;
73130;SDS011;64204;13.766;100.702;2023-11-21T23:42:32;15.38;;;7.78;;
73130;SDS011;64204;13.766;100.702;2023-11-21T23:44:59;21.67;;;10.93;;
73130;SDS011;64204;13.766;100.702;2023-11-21T23:47:27;18.33;;;10.20;;
73130;SDS011;64204;13.766;100.702;2023-11-21T23:49:54;14.63;;;9.82;;
73130;SDS011;64204;13.766;100.702;2023-11-21T23:52:20;11.52;;;8.50;;
73130;SDS011;64204;13.766;100.702;2023-11-21T23:54:47;17.02;;;9.65;;
73130;SDS011;64204;13.766;100.702;2023-11-21T23:57:13;17.95;;;10.55;;
73130;SDS011;64204;13.766;100.702;2023-11-21T23:59:40;13.93;;;7.80;;
